Time;durP1;ratioP1;P1;durP2;ratioP2;P2;SDS_P1;SDS_P2;PMS_P1;PMS_P2;Temp;Humidity;BMP_temperature;BMP_pressure;BME280_temperature;BME280_humidity;BME280_pressure;Samples;Min_cycle;Max_cycle;Signal;HPM_P1;HPM_P2
2022/08/29 03:00:55;;;;;;;0.90;0.90;;;19.60;76.10;;;;;;6001201;22;20399;-73
2022/08/29 03:03:22;;;;;;;0.87;0.70;;;19.60;76.20;;;;;;5035629;28;20428;-71
2022/08/29 03:05:48;;;;;;;1.33;0.87;;;19.50;76.50;;;;;;5035530;28;20493;-70
2022/08/29 03:08:15;;;;;;;0.80;0.80;;;19.50;76.60;;;;;;5035571;28;20501;-70
2022/08/29 03:10:42;;;;;;;0.80;0.70;;;19.50;76.70;;;;;;5035396;28;20490;-70
2022/08/29 03:13:10;;;;;;;1.30;0.90;;;19.50;76.70;;;;;;5035396;28;20444;-70
2022/08/29 03:15:37;;;;;;;0.80;0.80;;;19.50;76.70;;;;;;5036884;28;20440;-70
2022/08/29 03:18:05;;;;;;;1.00;0.90;;;19.40;76.90;;;;;;5035331;28;20443;-69
2022/08/29 03:20:34;;;;;;;1.10;1.00;;;19.40;76.90;;;;;;5035100;28;20479;-70
2022/08/29 03:23:01;;;;;;;0.80;0.80;;;19.40;76.90;;;;;;5034945;28;20823;-70
2022/08/29 03:25:28;;;;;;;0.80;0.80;;;19.40;77.00;;;;;;5034828;28;20950;-70
2022/08/29 03:27:55;;;;;;;0.80;0.80;;;19.40;77.00;;;;;;5035084;28;20505;-70
2022/08/29 03:30:22;;;;;;;0.87;0.87;;;19.40;77.10;;;;;;5035064;28;20448;-70
2022/08/29 03:32:49;;;;;;;0.90;0.90;;;19.40;77.10;;;;;;5035120;28;20459;-70
2022/08/29 03:35:18;;;;;;;1.07;0.97;;;19.40;77.00;;;;;;5034933;28;20456;-71
2022/08/29 03:37:45;;;;;;;0.70;0.70;;;19.30;77.10;;;;;;5035024;28;20509;-71
2022/08/29 03:40:12;;;;;;;0.80;0.80;;;19.30;77.30;;;;;;5034824;28;20479;-71
2022/08/29 03:42:41;;;;;;;1.10;1.00;;;19.30;77.40;;;;;;5034732;28;20549;-70
2022/08/29 03:45:12;;;;;;;1.00;0.90;;;19.30;77.30;;;;;;5036203;28;20476;-71
2022/08/29 03:47:39;;;;;;;1.00;0.80;;;19.30;77.30;;;;;;5043779;28;20428;-71
2022/08/29 03:50:07;;;;;;;0.80;0.80;;;19.20;77.40;;;;;;5044273;28;20439;-71
2022/08/29 03:52:36;;;;;;;0.87;0.87;;;19.20;77.50;;;;;;5043631;28;20460;-70
2022/08/29 03:55:05;;;;;;;0.87;0.87;;;19.20;77.50;;;;;;5042731;28;20452;-71
2022/08/29 03:57:33;;;;;;;0.83;0.83;;;19.20;77.60;;;;;;5042584;28;20452;-71
2022/08/29 04:00:01;;;;;;;0.80;0.80;;;19.10;77.60;;;;;;5042404;28;20498;-71
2022/08/29 04:02:28;;;;;;;0.90;0.90;;;19.10;77.70;;;;;;5041494;28;20486;-74
2022/08/29 04:05:07;;;;;;;0.80;0.80;;;19.10;77.70;;;;;;5041171;28;20530;-73
2022/08/29 04:07:40;;;;;;;1.20;1.10;;;19.10;77.70;;;;;;5041499;28;20436;-71
2022/08/29 04:10:09;;;;;;;1.13;0.90;;;19.10;77.80;;;;;;5041272;28;20899;-72
2022/08/29 04:12:36;;;;;;;1.00;0.90;;;19.00;77.80;;;;;;5040774;28;20541;-70
2022/08/29 04:15:04;;;;;;;0.90;0.90;;;19.00;77.80;;;;;;5042589;28;20455;-70
2022/08/29 04:17:31;;;;;;;0.80;0.80;;;19.00;77.80;;;;;;5034197;28;20448;-71
2022/08/29 04:19:58;;;;;;;1.20;1.10;;;18.90;78.00;;;;;;5034033;28;20480;-70
2022/08/29 04:22:24;;;;;;;1.00;1.00;;;18.90;78.00;;;;;;5034009;28;20467;-70
2022/08/29 04:24:52;;;;;;;0.80;0.80;;;18.90;78.10;;;;;;5034028;28;20447;-70
2022/08/29 04:27:19;;;;;;;0.90;0.90;;;18.90;78.10;;;;;;5033965;28;20451;-70
2022/08/29 04:29:47;;;;;;;1.13;1.00;;;18.90;78.00;;;;;;5033918;28;20478;-70
2022/08/29 04:32:14;;;;;;;0.90;0.90;;;18.90;78.00;;;;;;5033826;28;20467;-70
2022/08/29 04:34:40;;;;;;;1.00;1.00;;;18.90;77.90;;;;;;5033831;28;20454;-71
2022/08/29 04:37:07;;;;;;;0.90;0.90;;;18.90;77.90;;;;;;5033810;28;20517;-69
2022/08/29 04:39:34;;;;;;;0.70;0.70;;;18.90;78.00;;;;;;5033383;28;20844;-70
2022/08/29 04:42:02;;;;;;;0.80;0.80;;;18.80;78.00;;;;;;5033655;28;20521;-70
2022/08/29 04:44:29;;;;;;;0.87;0.87;;;18.80;78.00;;;;;;5033688;28;20447;-71
2022/08/29 04:46:55;;;;;;;0.87;0.87;;;18.80;78.00;;;;;;5033398;28;20975;-70
2022/08/29 04:49:22;;;;;;;0.80;0.80;;;18.80;77.80;;;;;;5033333;28;20938;-70
2022/08/29 04:51:52;;;;;;;0.80;0.80;;;18.80;77.80;;;;;;5033531;28;20817;-71
2022/08/29 04:54:19;;;;;;;0.80;0.80;;;18.80;78.00;;;;;;5033930;28;20458;-70
2022/08/29 04:56:45;;;;;;;0.90;0.90;;;18.80;77.80;;;;;;5033555;28;20498;-70
2022/08/29 04:59:14;;;;;;;0.90;0.90;;;18.80;77.80;;;;;;5033208;28;20497;-70
2022/08/29 05:01:41;;;;;;;0.80;0.80;;;18.90;78.00;;;;;;5032851;28;20541;-71
2022/08/29 05:04:08;;;;;;;0.80;0.70;;;18.90;77.90;;;;;;5033481;28;20478;-70
2022/08/29 05:06:35;;;;;;;0.70;0.70;;;18.90;77.80;;;;;;5033499;28;20538;-70
2022/08/29 05:09:01;;;;;;;0.80;0.80;;;19.00;78.00;;;;;;5033483;28;20448;-71
2022/08/29 05:11:30;;;;;;;0.83;0.83;;;19.00;77.80;;;;;;5033372;28;20493;-70
2022/08/29 05:13:58;;;;;;;0.80;0.80;;;19.10;77.70;;;;;;5033324;28;20444;-70
2022/08/29 05:16:26;;;;;;;0.97;0.97;;;19.20;77.60;;;;;;5033373;28;20448;-70
2022/08/29 05:18:52;;;;;;;0.80;0.70;;;19.30;77.50;;;;;;5033310;28;20505;-70
2022/08/29 05:21:25;;;;;;;1.00;0.87;;;19.30;77.60;;;;;;5033156;28;20483;-70
2022/08/29 05:23:52;;;;;;;0.90;0.90;;;19.40;77.30;;;;;;5033376;28;20448;-70
2022/08/29 05:26:20;;;;;;;1.30;1.17;;;19.60;77.10;;;;;;5033268;28;20455;-71
2022/08/29 05:28:46;;;;;;;0.70;0.70;;;19.70;76.90;;;;;;5032867;28;20874;-69
2022/08/29 05:31:14;;;;;;;0.90;0.90;;;19.80;76.50;;;;;;5033464;28;20501;-70
2022/08/29 05:33:42;;;;;;;0.90;0.90;;;19.90;76.10;;;;;;5033902;28;20463;-71
2022/08/29 05:36:09;;;;;;;0.83;0.83;;;20.10;76.00;;;;;;5033169;28;20513;-71
2022/08/29 05:38:35;;;;;;;0.90;0.90;;;20.20;75.80;;;;;;5033142;28;20453;-71
2022/08/29 05:41:02;;;;;;;0.90;0.80;;;20.40;75.70;;;;;;5032951;28;20487;-70
2022/08/29 05:43:29;;;;;;;0.87;0.87;;;20.50;75.20;;;;;;5033103;28;20447;-71
2022/08/29 05:46:02;;;;;;;0.90;0.90;;;20.70;74.60;;;;;;5033082;28;20493;-71
2022/08/29 05:48:29;;;;;;;1.73;1.03;;;20.90;74.10;;;;;;5033186;28;20436;-71
2022/08/29 05:50:58;;;;;;;0.90;0.90;;;21.00;73.50;;;;;;5032956;28;20614;-71
2022/08/29 05:53:25;;;;;;;0.90;0.90;;;21.10;73.10;;;;;;5033168;28;20443;-71
2022/08/29 05:55:52;;;;;;;1.20;1.10;;;21.20;73.20;;;;;;5032817;28;20825;-71
2022/08/29 05:58:19;;;;;;;0.80;0.80;;;21.40;72.70;;;;;;5033057;28;20470;-71
2022/08/29 06:00:48;;;;;;;0.97;0.97;;;21.50;72.50;;;;;;5032823;28;20887;-71
2022/08/29 06:03:15;;;;;;;1.20;1.07;;;21.60;72.20;;;;;;5033062;28;20953;-71
2022/08/29 06:05:42;;;;;;;0.90;0.90;;;21.80;72.00;;;;;;5032907;28;20443;-71
2022/08/29 06:08:11;;;;;;;0.90;0.90;;;21.90;71.50;;;;;;5033214;28;20475;-71
2022/08/29 06:10:40;;;;;;;1.20;1.10;;;22.10;71.20;;;;;;5032919;28;20448;-71
2022/08/29 06:13:07;;;;;;;1.17;1.10;;;22.40;71.00;;;;;;5036595;28;20451;-71
2022/08/29 06:15:34;;;;;;;1.27;1.17;;;22.70;70.00;;;;;;5036524;28;20459;-71
2022/08/29 06:18:01;;;;;;;1.27;1.17;;;23.10;69.10;;;;;;5036117;28;20501;-70
2022/08/29 06:20:27;;;;;;;1.33;1.23;;;23.30;69.10;;;;;;5035936;28;20518;-71
2022/08/29 06:22:54;;;;;;;1.40;1.20;;;23.90;67.90;;;;;;5036870;28;20444;-71
2022/08/29 06:25:22;;;;;;;0.90;0.90;;;24.50;66.00;;;;;;5036320;28;20853;-71
2022/08/29 06:27:52;;;;;;;1.00;0.90;;;25.20;64.40;;;;;;5036211;28;20452;-71
2022/08/29 06:30:19;;;;;;;1.07;1.07;;;25.80;62.90;;;;;;5036214;28;20439;-71
2022/08/29 06:32:45;;;;;;;1.13;1.03;;;26.40;61.50;;;;;;5036077;28;20470;-71
2022/08/29 06:35:12;;;;;;;1.00;1.00;;;27.10;59.80;;;;;;5036140;28;20443;-72
2022/08/29 06:37:41;;;;;;;0.80;0.80;;;27.70;58.20;;;;;;5036096;28;20470;-71
2022/08/29 06:40:08;;;;;;;1.10;1.00;;;28.30;57.30;;;;;;5036020;28;20448;-72
2022/08/29 06:42:36;;;;;;;0.80;0.80;;;29.00;55.20;;;;;;5035618;28;20970;-71
2022/08/29 06:45:04;;;;;;;0.90;0.90;;;29.50;53.80;;;;;;5035943;28;20452;-71
2022/08/29 06:47:31;;;;;;;1.20;1.10;;;30.00;53.30;;;;;;5035906;28;20500;-72
2022/08/29 06:49:57;;;;;;;0.90;0.90;;;30.10;52.40;;;;;;5035568;28;20447;-72
2022/08/29 06:52:24;;;;;;;0.90;0.90;;;30.30;52.50;;;;;;5036412;28;20463;-72
2022/08/29 06:54:50;;;;;;;1.00;1.00;;;30.20;52.60;;;;;;5035745;28;20447;-71
2022/08/29 06:57:18;;;;;;;0.90;0.90;;;30.00;53.20;;;;;;5035701;28;20451;-72
2022/08/29 06:59:46;;;;;;;1.10;1.00;;;29.90;53.30;;;;;;5035736;28;20448;-72
2022/08/29 07:02:12;;;;;;;0.90;0.90;;;29.30;54.20;;;;;;5035205;28;20495;-72
2022/08/29 07:04:39;;;;;;;1.00;1.00;;;28.10;55.90;;;;;;5035539;28;20447;-70
2022/08/29 07:07:05;;;;;;;1.30;1.20;;;26.80;58.90;;;;;;5035521;28;20501;-70
2022/08/29 07:09:32;;;;;;;1.53;1.10;;;26.40;60.40;;;;;;5035553;28;20447;-72
2022/08/29 07:11:59;;;;;;;1.00;1.00;;;26.30;60.90;;;;;;5035335;28;20460;-71
2022/08/29 07:14:26;;;;;;;0.83;0.83;;;26.10;61.70;;;;;;5035441;28;20857;-71
2022/08/29 07:16:55;;;;;;;1.00;1.00;;;26.00;62.20;;;;;;5035109;28;20860;-71
2022/08/29 07:19:22;;;;;;;1.30;1.20;;;25.90;62.70;;;;;;5035548;28;20458;-71
2022/08/29 07:21:52;;;;;;;0.93;0.93;;;25.90;62.90;;;;;;5035170;28;20486;-72
2022/08/29 07:24:18;;;;;;;1.33;1.23;;;26.00;62.60;;;;;;5034664;28;20470;-72
2022/08/29 07:26:46;;;;;;;1.00;1.00;;;25.90;63.00;;;;;;5035274;28;20451;-72
2022/08/29 07:29:15;;;;;;;1.13;1.07;;;25.90;63.30;;;;;;5035195;28;20474;-72
2022/08/29 07:31:42;;;;;;;1.20;1.10;;;25.70;64.10;;;;;;5034713;28;20979;-72
2022/08/29 07:34:10;;;;;;;1.20;1.10;;;25.30;64.40;;;;;;5035064;28;20452;-72
2022/08/29 07:36:38;;;;;;;1.20;1.10;;;25.40;65.00;;;;;;5035151;28;20451;-72
2022/08/29 07:39:08;;;;;;;1.00;1.00;;;25.60;64.40;;;;;;5034700;28;20447;-72
2022/08/29 07:41:35;;;;;;;1.23;1.13;;;25.70;63.80;;;;;;5034522;28;20911;-71
2022/08/29 07:44:01;;;;;;;1.20;1.10;;;25.70;63.70;;;;;;5034829;28;20458;-72
2022/08/29 07:46:28;;;;;;;1.00;1.00;;;25.90;63.10;;;;;;5034857;28;20452;-72
2022/08/29 07:48:57;;;;;;;1.20;1.13;;;25.70;63.30;;;;;;5034798;28;20458;-72
2022/08/29 07:51:26;;;;;;;1.47;1.40;;;25.60;63.90;;;;;;5034636;28;20460;-72
2022/08/29 07:53:53;;;;;;;1.30;1.20;;;25.60;63.20;;;;;;5034664;28;20482;-72
2022/08/29 07:56:23;;;;;;;1.50;1.40;;;24.90;65.50;;;;;;5034631;28;20443;-72
2022/08/29 07:58:49;;;;;;;1.07;1.07;;;24.90;66.10;;;;;;5034239;28;20542;-72
2022/08/29 08:01:17;;;;;;;1.13;1.13;;;24.90;64.80;;;;;;5034200;28;20574;-72
2022/08/29 08:03:43;;;;;;;1.23;1.13;;;24.80;65.20;;;;;;5034485;28;20490;-72
2022/08/29 08:06:10;;;;;;;1.73;1.30;;;25.00;66.00;;;;;;5034415;28;20443;-72
2022/08/29 08:08:39;;;;;;;1.13;1.03;;;25.30;66.40;;;;;;5034416;28;20454;-72
2022/08/29 08:11:09;;;;;;;1.20;1.10;;;25.60;64.20;;;;;;5034004;28;20970;-73
2022/08/29 08:13:36;;;;;;;1.30;1.20;;;25.60;64.30;;;;;;5033976;28;20969;-72
2022/08/29 08:16:05;;;;;;;3.70;1.03;;;25.80;63.90;;;;;;5034269;28;20447;-72
2022/08/29 08:18:31;;;;;;;1.10;1.10;;;25.90;62.40;;;;;;5033833;28;20935;-72
2022/08/29 08:20:58;;;;;;;0.90;0.80;;;25.80;63.30;;;;;;5033995;28;20495;-72
2022/08/29 08:23:24;;;;;;;0.93;0.93;;;25.80;63.10;;;;;;5033771;28;20843;-73
2022/08/29 08:25:52;;;;;;;1.30;1.20;;;25.90;63.00;;;;;;5034084;28;20444;-72
2022/08/29 08:28:19;;;;;;;1.00;1.00;;;26.10;61.50;;;;;;5033959;28;20452;-72
2022/08/29 08:30:46;;;;;;;1.07;1.03;;;26.10;61.60;;;;;;5033982;28;20467;-72
2022/08/29 08:33:12;;;;;;;1.10;1.00;;;26.00;62.10;;;;;;5033960;28;20452;-73
2022/08/29 08:35:41;;;;;;;1.07;1.03;;;25.90;62.30;;;;;;5032994;28;20825;-73
2022/08/29 08:38:08;;;;;;;1.00;0.80;;;25.60;63.20;;;;;;5033868;28;20505;-73
2022/08/29 08:40:42;;;;;;;1.17;0.80;;;26.10;63.60;;;;;;5033786;28;20444;-73
2022/08/29 08:43:14;;;;;;;1.10;0.90;;;26.10;63.70;;;;;;5033812;28;20467;-72
2022/08/29 08:45:43;;;;;;;1.27;0.90;;;26.10;61.90;;;;;;5033807;28;20443;-72
2022/08/29 08:48:15;;;;;;;1.20;1.10;;;25.70;62.60;;;;;;5033672;28;20443;-72
2022/08/29 08:50:47;;;;;;;1.10;0.87;;;25.70;63.30;;;;;;5033623;28;20471;-72
2022/08/29 08:53:19;;;;;;;0.80;0.70;;;25.70;62.70;;;;;;5033463;28;20463;-72
2022/08/29 08:55:49;;;;;;;0.80;0.80;;;25.40;62.10;;;;;;5033764;28;20447;-72
2022/08/29 08:58:30;;;;;;;0.70;0.70;;;25.20;63.20;;;;;;5033672;28;20483;-72
2022/08/29 09:01:00;;;;;;;0.90;0.90;;;25.20;64.10;;;;;;5033300;28;20518;-73
2022/08/29 09:04:05;;;;;;;1.10;1.00;;;25.40;63.50;;;;;;5033290;28;20840;-73
2022/08/29 09:06:48;;;;;;;0.90;0.80;;;25.50;64.10;;;;;;5033272;28;20497;-72
2022/08/29 09:09:28;;;;;;;0.93;0.87;;;25.90;63.90;;;;;;5033620;28;20432;-73
2022/08/29 09:12:03;;;;;;;1.00;0.83;;;25.90;61.90;;;;;;5033362;28;20525;-73
2022/08/29 09:14:51;;;;;;;0.90;0.90;;;26.20;61.90;;;;;;5033399;28;20426;-71
2022/08/29 09:17:23;;;;;;;1.10;1.00;;;26.60;60.90;;;;;;5034915;28;20428;-72
2022/08/29 09:19:51;;;;;;;1.00;0.90;;;26.50;60.80;;;;;;5033047;28;20432;-72
2022/08/29 09:22:25;;;;;;;1.10;1.00;;;26.60;60.10;;;;;;5033140;28;20492;-72
2022/08/29 09:24:57;;;;;;;0.97;0.80;;;26.90;59.80;;;;;;5033321;28;20471;-72
2022/08/29 09:27:26;;;;;;;0.80;0.80;;;26.90;58.80;;;;;;5033353;28;20440;-72
2022/08/29 09:30:01;;;;;;;0.70;0.70;;;26.70;59.00;;;;;;5033234;28;20499;-72
2022/08/29 09:32:28;;;;;;;0.90;0.90;;;26.60;58.50;;;;;;5033233;28;20466;-72
2022/08/29 09:34:55;;;;;;;0.80;0.80;;;26.40;58.10;;;;;;5033008;28;20459;-72
2022/08/29 09:37:27;;;;;;;0.80;0.80;;;26.60;58.40;;;;;;5032874;28;20938;-72
2022/08/29 09:39:58;;;;;;;0.80;0.70;;;26.70;58.50;;;;;;5033252;28;20424;-73
2022/08/29 09:42:32;;;;;;;1.10;0.93;;;26.50;57.90;;;;;;5033033;28;20861;-72
2022/08/29 09:45:15;;;;;;;0.80;0.80;;;26.30;59.90;;;;;;5033149;28;20428;-73
2022/08/29 09:47:41;;;;;;;1.00;0.90;;;26.20;60.70;;;;;;5036622;28;20432;-72
2022/08/29 09:50:17;;;;;;;0.87;0.87;;;26.00;59.30;;;;;;5036984;28;20447;-72
2022/08/29 09:52:53;;;;;;;0.80;0.80;;;26.20;59.20;;;;;;5036930;28;20463;-72
2022/08/29 09:55:33;;;;;;;0.70;0.70;;;26.50;59.20;;;;;;5036897;28;20440;-72
2022/08/29 09:58:03;;;;;;;0.97;0.80;;;26.50;59.50;;;;;;5036592;28;20895;-72
2022/08/29 10:00:34;;;;;;;0.70;0.70;;;26.40;57.90;;;;;;5036712;28;20474;-72
2022/08/29 10:03:04;;;;;;;0.93;0.90;;;26.30;58.70;;;;;;5036688;28;20891;-72
2022/08/29 10:05:40;;;;;;;1.00;0.83;;;26.30;59.00;;;;;;5036667;28;20457;-72
2022/08/29 10:08:22;;;;;;;0.80;0.80;;;26.30;59.80;;;;;;5036714;28;20530;-74
2022/08/29 10:10:54;;;;;;;0.80;0.80;;;26.10;57.90;;;;;;5036608;28;20467;-73
2022/08/29 10:13:26;;;;;;;0.80;0.70;;;26.40;59.20;;;;;;5036525;28;20428;-72
2022/08/29 10:16:01;;;;;;;0.70;0.70;;;26.60;59.20;;;;;;5036555;28;20439;-73
2022/08/29 10:18:38;;;;;;;0.80;0.70;;;27.00;58.00;;;;;;5036512;28;20836;-73
2022/08/29 10:21:17;;;;;;;1.20;0.80;;;27.00;56.60;;;;;;5036352;28;20529;-72
2022/08/29 10:23:54;;;;;;;0.80;0.80;;;27.20;58.10;;;;;;5036384;28;20467;-73
2022/08/29 10:26:32;;;;;;;0.80;0.80;;;27.60;56.60;;;;;;5036361;28;20494;-73
2022/08/29 10:29:08;;;;;;;0.90;0.80;;;28.00;55.70;;;;;;5036319;28;20447;-73
2022/08/29 10:31:44;;;;;;;0.80;0.80;;;27.80;55.90;;;;;;5036263;28;20554;-72
2022/08/29 10:34:27;;;;;;;0.80;0.70;;;28.00;55.10;;;;;;5036203;28;20551;-73
2022/08/29 10:37:01;;;;;;;0.80;0.70;;;27.90;54.80;;;;;;5036337;28;20522;-73
2022/08/29 10:39:36;;;;;;;0.80;0.80;;;28.10;55.00;;;;;;5036234;28;20440;-74
2022/08/29 10:42:09;;;;;;;0.70;0.70;;;27.50;54.40;;;;;;5035925;28;20489;-73
2022/08/29 10:44:49;;;;;;;0.70;0.70;;;27.10;55.90;;;;;;5036102;28;20462;-73
2022/08/29 10:47:25;;;;;;;0.70;0.70;;;27.30;57.40;;;;;;5035716;28;20522;-73
2022/08/29 10:50:15;;;;;;;0.80;0.73;;;27.30;55.70;;;;;;5035888;28;20444;-73
2022/08/29 10:52:53;;;;;;;0.87;0.87;;;27.60;56.50;;;;;;5038850;28;20459;-73
2022/08/29 10:55:31;;;;;;;0.90;0.90;;;27.90;56.60;;;;;;5046564;28;20439;-74
2022/08/29 10:58:05;;;;;;;0.80;0.80;;;27.90;55.40;;;;;;5043950;28;20438;-74
2022/08/29 11:00:40;;;;;;;0.83;0.83;;;27.70;56.30;;;;;;5044554;28;20449;-73
2022/08/29 11:03:22;;;;;;;0.80;0.80;;;27.90;54.40;;;;;;5043550;28;20475;-73
2022/08/29 11:05:54;;;;;;;0.90;0.90;;;28.00;55.40;;;;;;5044768;28;20490;-73
2022/08/29 11:08:26;;;;;;;1.10;0.70;;;28.30;54.50;;;;;;5044875;28;20428;-74
2022/08/29 11:10:52;;;;;;;0.70;0.70;;;28.20;55.30;;;;;;5045156;28;20485;-74
2022/08/29 11:13:23;;;;;;;0.80;0.80;;;28.20;54.50;;;;;;5044823;28;20463;-73
2022/08/29 11:16:00;;;;;;;0.73;0.70;;;28.30;54.10;;;;;;5045401;28;20434;-74
2022/08/29 11:18:33;;;;;;;0.70;0.70;;;28.00;53.90;;;;;;5045259;28;20420;-75
2022/08/29 11:21:04;;;;;;;1.37;0.77;;;28.10;54.40;;;;;;5045392;28;20829;-74
2022/08/29 11:23:37;;;;;;;0.80;0.70;;;28.20;54.10;;;;;;5045299;28;20464;-73
2022/08/29 11:26:13;;;;;;;1.17;0.70;;;28.40;53.90;;;;;;5044771;28;20439;-72
2022/08/29 11:28:50;;;;;;;0.73;0.73;;;28.60;53.80;;;;;;5044220;28;20444;-73
2022/08/29 11:31:24;;;;;;;0.90;0.80;;;28.70;53.90;;;;;;5044633;28;20470;-73
2022/08/29 11:34:01;;;;;;;0.90;0.90;;;28.70;55.10;;;;;;5044940;28;20503;-73
2022/08/29 11:36:57;;;;;;;0.90;0.80;;;28.50;53.70;;;;;;5044218;28;20428;-74
2022/08/29 11:39:49;;;;;;;0.80;0.70;;;28.10;55.10;;;;;;5042578;28;20927;-74
2022/08/29 11:42:18;;;;;;;1.27;0.90;;;28.20;54.00;;;;;;5043929;28;20529;-74
2022/08/29 11:44:48;;;;;;;0.87;0.80;;;28.30;53.80;;;;;;5043986;28;20526;-74
2022/08/29 11:47:37;;;;;;;0.70;0.70;;;28.40;54.10;;;;;;5044443;28;20455;-74
2022/08/29 11:50:19;;;;;;;0.97;0.80;;;28.30;54.40;;;;;;5044230;28;20432;-73
2022/08/29 11:52:52;;;;;;;0.87;0.70;;;28.50;54.40;;;;;;5043985;28;20467;-74
2022/08/29 11:55:30;;;;;;;0.87;0.83;;;28.80;53.20;;;;;;5044736;28;20439;-73
2022/08/29 11:58:01;;;;;;;0.77;0.77;;;28.60;53.10;;;;;;5044179;28;20443;-73
2022/08/29 12:00:51;;;;;;;0.70;0.70;;;28.80;53.80;;;;;;5043509;28;20432;-73
2022/08/29 12:03:44;;;;;;;0.73;0.70;;;29.10;53.00;;;;;;5042691;28;20483;-73
2022/08/29 12:06:21;;;;;;;0.80;0.80;;;29.40;51.60;;;;;;5043338;28;20439;-73
2022/08/29 12:08:54;;;;;;;0.70;0.63;;;29.40;51.70;;;;;;5043649;28;20428;-73
2022/08/29 12:11:21;;;;;;;0.70;0.70;;;29.40;50.60;;;;;;5043625;28;20463;-73
2022/08/29 12:14:02;;;;;;;0.80;0.70;;;29.00;51.90;;;;;;5043444;28;20456;-73
2022/08/29 12:16:45;;;;;;;0.70;0.70;;;28.70;51.50;;;;;;5043778;28;20451;-73
2022/08/29 12:19:32;;;;;;;0.80;0.77;;;28.70;51.80;;;;;;5044130;28;20431;-73
2022/08/29 12:22:01;;;;;;;0.80;0.70;;;28.40;51.90;;;;;;5042562;28;20467;-73
2022/08/29 12:24:41;;;;;;;1.03;0.70;;;28.10;53.20;;;;;;5043385;28;20448;-73
2022/08/29 12:27:44;;;;;;;0.90;0.90;;;28.20;53.40;;;;;;5034352;28;20438;-73
2022/08/29 12:30:13;;;;;;;0.90;0.73;;;28.60;52.10;;;;;;5023921;28;20462;-73
2022/08/29 12:32:58;;;;;;;0.80;0.73;;;28.50;52.80;;;;;;5033914;28;20471;-73
2022/08/29 12:35:53;;;;;;;0.90;0.80;;;28.20;53.00;;;;;;5033937;28;20439;-73
2022/08/29 12:38:31;;;;;;;0.80;0.80;;;28.20;52.30;;;;;;5033957;28;20447;-73
2022/08/29 12:41:14;;;;;;;0.80;0.80;;;28.30;53.60;;;;;;5033824;28;20522;-74
2022/08/29 12:43:43;;;;;;;0.80;0.70;;;28.40;53.10;;;;;;5033455;28;21045;-73
2022/08/29 12:46:16;;;;;;;0.77;0.60;;;28.20;52.70;;;;;;5033813;28;20443;-73
2022/08/29 12:48:50;;;;;;;0.80;0.70;;;28.50;52.60;;;;;;5033751;28;20432;-73
2022/08/29 12:51:51;;;;;;;1.23;0.80;;;28.80;51.70;;;;;;5033641;28;20476;-73
2022/08/29 12:54:31;;;;;;;0.70;0.60;;;29.30;51.10;;;;;;4992077;28;20429;-73
2022/08/29 12:56:58;;;;;;;0.70;0.67;;;29.50;50.20;;;;;;5029109;28;20550;-73
2022/08/29 12:59:25;;;;;;;0.70;0.60;;;29.40;48.70;;;;;;5033237;28;20444;-73
2022/08/29 13:01:54;;;;;;;0.70;0.70;;;29.40;48.30;;;;;;5033131;28;21013;-73
2022/08/29 13:04:22;;;;;;;0.90;0.80;;;29.50;47.90;;;;;;5037735;28;21045;-73
2022/08/29 13:06:55;;;;;;;0.70;0.70;;;29.40;48.90;;;;;;5039786;28;20943;-73
2022/08/29 13:09:29;;;;;;;1.73;0.70;;;29.40;49.00;;;;;;5040395;28;20424;-73
2022/08/29 13:12:13;;;;;;;0.80;0.73;;;29.50;48.30;;;;;;5040358;28;20547;-74
2022/08/29 13:14:52;;;;;;;0.80;0.80;;;29.60;49.40;;;;;;5039500;28;20434;-74
2022/08/29 13:17:22;;;;;;;0.77;0.77;;;29.90;50.20;;;;;;5034467;28;20427;-73
2022/08/29 13:20:26;;;;;;;0.90;0.90;;;30.40;48.50;;;;;;5033283;28;20605;-73
2022/08/29 13:23:18;;;;;;;0.70;0.70;;;30.70;47.10;;;;;;5039659;28;20490;-73
2022/08/29 13:25:50;;;;;;;0.80;0.70;;;30.90;46.80;;;;;;5037349;28;20455;-73
2022/08/29 13:28:22;;;;;;;0.90;0.80;;;30.90;47.40;;;;;;5039872;28;20427;-73
2022/08/29 13:31:09;;;;;;;0.80;0.60;;;30.80;47.80;;;;;;5039849;28;20482;-73
2022/08/29 13:33:36;;;;;;;0.77;0.70;;;30.60;48.00;;;;;;5039851;28;20459;-73
2022/08/29 13:36:32;;;;;;;0.73;0.63;;;30.50;47.40;;;;;;5040036;28;20452;-73
2022/08/29 13:39:26;;;;;;;0.70;0.70;;;30.40;47.60;;;;;;5039901;28;20447;-73
2022/08/29 13:42:18;;;;;;;1.00;0.90;;;30.30;48.50;;;;;;5039372;28;21001;-72
2022/08/29 13:45:02;;;;;;;2.00;1.07;;;30.30;48.40;;;;;;5039634;28;20467;-73
2022/08/29 13:47:31;;;;;;;1.53;1.20;;;30.30;48.70;;;;;;5039746;28;20443;-73
2022/08/29 13:50:00;;;;;;;1.30;0.90;;;30.20;48.60;;;;;;5039623;28;20478;-72
2022/08/29 13:52:27;;;;;;;0.80;0.80;;;30.40;48.30;;;;;;5039244;28;20892;-73
2022/08/29 13:54:55;;;;;;;1.00;0.70;;;30.60;49.70;;;;;;5039546;28;20451;-73
2022/08/29 13:57:27;;;;;;;0.70;0.60;;;30.90;48.90;;;;;;5039503;28;20530;-73
2022/08/29 13:59:55;;;;;;;0.80;0.80;;;31.10;47.20;;;;;;5039549;28;20434;-73
2022/08/29 14:02:21;;;;;;;0.80;0.70;;;31.30;47.50;;;;;;5038977;28;20994;-72
2022/08/29 14:04:48;;;;;;;0.77;0.70;;;31.10;46.90;;;;;;5039403;28;20483;-73
2022/08/29 14:07:18;;;;;;;0.77;0.70;;;31.00;47.40;;;;;;5039691;28;20502;-73
2022/08/29 14:09:46;;;;;;;0.80;0.73;;;30.80;46.80;;;;;;5039541;28;20435;-73
2022/08/29 14:12:14;;;;;;;1.10;0.80;;;31.10;48.00;;;;;;5039377;28;20472;-73
2022/08/29 14:14:42;;;;;;;0.70;0.70;;;31.40;47.20;;;;;;5039421;28;20447;-72
2022/08/29 14:17:09;;;;;;;0.70;0.70;;;31.40;46.90;;;;;;5039074;28;20825;-73
2022/08/29 14:19:36;;;;;;;0.70;0.70;;;31.40;47.10;;;;;;5039389;28;20451;-73
2022/08/29 14:22:03;;;;;;;0.77;0.70;;;31.50;46.50;;;;;;5039338;28;20835;-73
2022/08/29 14:24:32;;;;;;;0.70;0.70;;;31.70;45.60;;;;;;5039497;28;20497;-72
2022/08/29 14:26:59;;;;;;;0.70;0.60;;;31.70;46.00;;;;;;5039465;28;20475;-73
2022/08/29 14:29:26;;;;;;;0.70;0.70;;;31.60;46.20;;;;;;5039336;28;20497;-73
2022/08/29 14:31:54;;;;;;;0.90;0.60;;;31.40;45.20;;;;;;5038501;28;20820;-73
2022/08/29 14:34:20;;;;;;;0.77;0.70;;;30.70;46.20;;;;;;5036109;28;20823;-73
2022/08/29 14:36:47;;;;;;;0.70;0.70;;;30.00;47.40;;;;;;5036189;28;20525;-73
2022/08/29 14:39:14;;;;;;;0.70;0.60;;;29.70;47.30;;;;;;5036120;28;20494;-72
2022/08/29 14:41:41;;;;;;;0.70;0.60;;;29.60;47.60;;;;;;5035995;28;20471;-73
2022/08/29 14:44:08;;;;;;;0.80;0.80;;;29.80;48.00;;;;;;5035953;28;20533;-73
2022/08/29 14:46:34;;;;;;;0.70;0.70;;;29.90;47.00;;;;;;5036004;28;20443;-73
2022/08/29 14:49:03;;;;;;;0.70;0.60;;;30.40;47.90;;;;;;5035978;28;20451;-72
2022/08/29 14:51:30;;;;;;;0.70;0.70;;;31.60;44.90;;;;;;5035859;28;20468;-73
2022/08/29 14:53:56;;;;;;;0.70;0.60;;;32.80;43.20;;;;;;5035853;28;20443;-73
2022/08/29 14:56:27;;;;;;;0.70;0.70;;;33.90;42.20;;;;;;5035758;28;20482;-73
2022/08/29 14:58:53;;;;;;;0.70;0.60;;;35.00;40.30;;;;;;5035729;28;20850;-72
2022/08/29 15:01:20;;;;;;;0.70;0.60;;;35.90;38.90;;;;;;5035499;28;20896;-73
2022/08/29 15:03:47;;;;;;;0.70;0.60;;;37.20;38.50;;;;;;5035931;28;20482;-74
2022/08/29 15:06:15;;;;;;;0.70;0.70;;;38.40;36.90;;;;;;5048257;28;20454;-73
2022/08/29 15:08:42;;;;;;;0.80;0.80;;;38.70;35.70;;;;;;5047768;28;20538;-74
2022/08/29 15:11:10;;;;;;;0.73;0.60;;;38.70;35.60;;;;;;5035240;28;21043;-73
2022/08/29 15:13:37;;;;;;;0.90;0.67;;;38.90;36.30;;;;;;5035628;28;20447;-73
2022/08/29 15:16:04;;;;;;;0.80;0.70;;;39.50;35.90;;;;;;5037003;28;20450;-74
2022/08/29 15:18:31;;;;;;;0.80;0.70;;;39.10;35.70;;;;;;5035510;28;20501;-74
2022/08/29 15:20:58;;;;;;;0.70;0.60;;;38.50;36.00;;;;;;5035325;28;21077;-74
2022/08/29 15:23:26;;;;;;;1.33;0.70;;;38.40;36.40;;;;;;5034985;28;20998;-73
2022/08/29 15:25:52;;;;;;;0.70;0.70;;;38.50;36.40;;;;;;5035307;28;20451;-74
2022/08/29 15:28:19;;;;;;;1.43;0.63;;;38.40;37.00;;;;;;5035327;28;20451;-74
2022/08/29 15:30:46;;;;;;;0.70;0.60;;;37.90;37.40;;;;;;5035198;28;20463;-74
2022/08/29 15:33:13;;;;;;;0.70;0.60;;;37.10;37.50;;;;;;5035002;28;21022;-74
2022/08/29 15:35:40;;;;;;;0.80;0.60;;;36.40;38.20;;;;;;5035169;28;20447;-74
2022/08/29 15:38:08;;;;;;;0.80;0.70;;;35.20;39.30;;;;;;5035220;28;20452;-74
2022/08/29 15:40:36;;;;;;;0.70;0.60;;;34.20;40.50;;;;;;5035363;28;20497;-73
2022/08/29 15:43:03;;;;;;;0.70;0.60;;;33.60;42.00;;;;;;5035108;28;20853;-73
2022/08/29 15:45:30;;;;;;;0.80;0.70;;;33.00;42.80;;;;;;5034130;28;20482;-74
2022/08/29 15:47:58;;;;;;;0.70;0.60;;;32.60;43.30;;;;;;5034794;28;20452;-73
2022/08/29 15:50:26;;;;;;;0.80;0.70;;;32.30;43.50;;;;;;5034682;28;20534;-73
2022/08/29 15:52:53;;;;;;;0.70;0.67;;;31.70;44.10;;;;;;5034690;28;20448;-73
2022/08/29 15:55:20;;;;;;;0.70;0.60;;;31.30;44.40;;;;;;5034619;28;20442;-72
2022/08/29 15:57:49;;;;;;;0.80;0.70;;;31.00;45.60;;;;;;5034155;28;20958;-72
2022/08/29 16:00:18;;;;;;;0.80;0.70;;;30.80;46.10;;;;;;5034455;28;20497;-72
2022/08/29 16:02:45;;;;;;;0.80;0.70;;;30.50;46.90;;;;;;5034229;28;20487;-73
2022/08/29 16:05:11;;;;;;;1.20;1.10;;;30.30;47.40;;;;;;5034046;28;20911;-73
2022/08/29 16:07:38;;;;;;;0.80;0.70;;;30.10;47.80;;;;;;5033974;28;20934;-73